Time;durP1;ratioP1;P1;durP2;ratioP2;P2;SDS_P1;SDS_P2;PMS_P1;PMS_P2;Temp;Humidity;BMP_temperature;BMP_pressure;BME280_temperature;BME280_humidity;BME280_pressure;Samples;Min_cycle;Max_cycle;Signal;HPM_P1;HPM_P2
2023/06/20 00:00:49;;;;;;;190.23;174.20;;;;;;;;;;4995246;28;20042;-63
2023/06/20 00:03:16;;;;;;;191.52;173.73;;;;;;;;;;5007631;28;20132;-63
2023/06/20 00:05:43;;;;;;;175.88;161.00;;;;;;;;;;5003277;28;20049;-66
2023/06/20 00:08:10;;;;;;;196.82;176.35;;;;;;;;;;5004751;28;20049;-64
2023/06/20 00:10:37;;;;;;;192.80;174.60;;;;;;;;;;5003458;28;20533;-63
2023/06/20 00:13:03;;;;;;;177.57;163.35;;;;;;;;;;4994661;28;20054;-66
2023/06/20 00:15:30;;;;;;;180.02;165.35;;;;;;;;;;5002370;28;20039;-64
2023/06/20 00:18:00;;;;;;;181.50;166.52;;;;;;;;;;5002858;28;20050;-63
2023/06/20 00:20:28;;;;;;;186.30;169.48;;;;;;;;;;5001267;28;20034;-63
2023/06/20 00:22:55;;;;;;;189.57;171.65;;;;;;;;;;5001049;28;20049;-63
2023/06/20 00:25:22;;;;;;;187.57;171.15;;;;;;;;;;4992997;28;20074;-63
2023/06/20 00:27:49;;;;;;;188.60;173.07;;;;;;;;;;5002970;28;20120;-63
2023/06/20 00:30:16;;;;;;;178.27;164.15;;;;;;;;;;4999783;28;20042;-63
2023/06/20 00:32:43;;;;;;;190.88;174.57;;;;;;;;;;5002407;28;20060;-64
2023/06/20 00:35:10;;;;;;;188.25;172.77;;;;;;;;;;5003736;28;20048;-63
2023/06/20 00:37:38;;;;;;;180.30;166.38;;;;;;;;;;5000988;28;20137;-63
2023/06/20 00:40:08;;;;;;;187.50;171.45;;;;;;;;;;5005038;28;20085;-64
2023/06/20 00:42:35;;;;;;;190.80;175.40;;;;;;;;;;4993132;28;20411;-64
2023/06/20 00:45:24;;;;;;;175.75;161.48;;;;;;;;;;5007278;28;20137;-63
2023/06/20 00:47:52;;;;;;;194.27;178.15;;;;;;;;;;4987204;28;20054;-63
2023/06/20 00:50:19;;;;;;;187.18;169.85;;;;;;;;;;5002739;28;20042;-63
2023/06/20 00:52:48;;;;;;;182.07;166.27;;;;;;;;;;5003169;28;20034;-68
2023/06/20 00:55:15;;;;;;;193.85;175.18;;;;;;;;;;5004610;28;20058;-64
2023/06/20 00:57:43;;;;;;;183.02;168.18;;;;;;;;;;5004726;28;20117;-62
2023/06/20 01:00:12;;;;;;;189.07;173.02;;;;;;;;;;5002507;28;20038;-63
2023/06/20 01:02:46;;;;;;;188.50;172.43;;;;;;;;;;5000507;28;20042;-64
2023/06/20 01:05:14;;;;;;;193.40;178.68;;;;;;;;;;4986205;28;20050;-63
2023/06/20 01:07:48;;;;;;;189.13;173.70;;;;;;;;;;4985174;28;20051;-63
2023/06/20 01:10:28;;;;;;;185.65;170.50;;;;;;;;;;5001362;28;20046;-63
2023/06/20 01:13:01;;;;;;;195.57;179.27;;;;;;;;;;4984632;28;20067;-67
2023/06/20 01:15:46;;;;;;;181.13;165.43;;;;;;;;;;4982959;28;20078;-63
2023/06/20 01:18:17;;;;;;;177.25;163.23;;;;;;;;;;5001411;28;20050;-63
2023/06/20 01:20:53;;;;;;;177.15;161.07;;;;;;;;;;4998367;28;20093;-66
2023/06/20 01:23:36;;;;;;;173.88;158.52;;;;;;;;;;5002518;28;20488;-64
2023/06/20 01:26:05;;;;;;;207.55;163.48;;;;;;;;;;5003025;28;20041;-64
2023/06/20 01:28:38;;;;;;;167.00;152.75;;;;;;;;;;4986963;28;20503;-67
2023/06/20 01:31:08;;;;;;;162.20;149.77;;;;;;;;;;5003466;28;20069;-63
2023/06/20 01:33:38;;;;;;;165.35;149.63;;;;;;;;;;4982614;28;20484;-63
2023/06/20 01:36:06;;;;;;;154.65;142.07;;;;;;;;;;5004381;28;20054;-62
2023/06/20 01:38:34;;;;;;;147.20;134.18;;;;;;;;;;5005237;28;20049;-63
2023/06/20 01:41:04;;;;;;;207.07;151.00;;;;;;;;;;4983514;28;20061;-67
2023/06/20 01:43:31;;;;;;;150.40;136.77;;;;;;;;;;4993114;28;20045;-67
2023/06/20 01:46:00;;;;;;;144.27;130.75;;;;;;;;;;4984492;28;20472;-64
2023/06/20 01:48:27;;;;;;;153.50;138.45;;;;;;;;;;4999370;28;20594;-66
2023/06/20 01:50:56;;;;;;;146.35;131.25;;;;;;;;;;4984948;28;20056;-64
2023/06/20 01:53:23;;;;;;;146.60;132.70;;;;;;;;;;4998781;28;20045;-63
2023/06/20 01:55:51;;;;;;;152.60;137.32;;;;;;;;;;4999514;28;20415;-64
2023/06/20 01:58:18;;;;;;;137.70;126.53;;;;;;;;;;5007476;28;20038;-64
2023/06/20 02:04:00;;;;;;;179.85;165.10;;;;;;;;;;4892913;29;20060;-63
2023/06/20 02:06:29;;;;;;;176.30;162.50;;;;;;;;;;4910000;29;20044;-61
2023/06/20 02:08:57;;;;;;;179.77;164.57;;;;;;;;;;4892758;29;20072;-60
2023/06/20 02:11:25;;;;;;;174.85;159.57;;;;;;;;;;4910003;29;20079;-62
2023/06/20 02:13:52;;;;;;;168.52;154.43;;;;;;;;;;4894118;29;20484;-62
2023/06/20 02:16:21;;;;;;;159.32;146.95;;;;;;;;;;4893335;29;20048;-61
2023/06/20 02:18:48;;;;;;;155.68;143.20;;;;;;;;;;4887267;29;20060;-61
2023/06/20 02:21:19;;;;;;;153.25;141.63;;;;;;;;;;4909717;29;20677;-62
2023/06/20 02:23:48;;;;;;;158.57;146.35;;;;;;;;;;4892986;29;20045;-61
2023/06/20 02:26:16;;;;;;;159.68;146.02;;;;;;;;;;4895261;29;20059;-62
2023/06/20 02:28:45;;;;;;;166.90;152.85;;;;;;;;;;4904793;29;20139;-63
2023/06/20 02:31:15;;;;;;;147.45;135.63;;;;;;;;;;4898997;29;20420;-61
2023/06/20 02:33:43;;;;;;;158.77;146.10;;;;;;;;;;4897367;29;20771;-62
2023/06/20 02:36:10;;;;;;;154.77;143.60;;;;;;;;;;4902136;29;20489;-62
2023/06/20 02:38:37;;;;;;;158.30;142.75;;;;;;;;;;4897836;29;20056;-61
2023/06/20 02:41:04;;;;;;;158.05;142.75;;;;;;;;;;4896126;29;20060;-63
2023/06/20 02:43:31;;;;;;;156.20;142.23;;;;;;;;;;4899481;29;20101;-62
2023/06/20 02:46:04;;;;;;;158.73;145.27;;;;;;;;;;4903361;29;20052;-63
2023/06/20 02:48:37;;;;;;;167.07;153.05;;;;;;;;;;4896631;29;20449;-61
2023/06/20 02:51:04;;;;;;;151.15;139.23;;;;;;;;;;4912826;29;20049;-62
2023/06/20 02:53:37;;;;;;;160.85;146.75;;;;;;;;;;4913178;29;20040;-63
2023/06/20 02:56:07;;;;;;;171.05;153.95;;;;;;;;;;4896971;29;20498;-62
2023/06/20 02:58:37;;;;;;;168.38;153.60;;;;;;;;;;4898240;29;20062;-61
2023/06/20 03:01:04;;;;;;;148.20;136.13;;;;;;;;;;4914466;29;20052;-62
2023/06/20 03:03:43;;;;;;;152.63;139.20;;;;;;;;;;4930472;29;20494;-62
2023/06/20 03:06:12;;;;;;;152.90;139.65;;;;;;;;;;4924308;29;20490;-61
2023/06/20 03:08:42;;;;;;;150.25;136.80;;;;;;;;;;4916718;29;20116;-62
2023/06/20 03:11:09;;;;;;;154.68;141.10;;;;;;;;;;4931897;29;20068;-63
2023/06/20 03:13:36;;;;;;;152.48;140.55;;;;;;;;;;4901161;29;20660;-63
2023/06/20 03:16:08;;;;;;;161.13;148.60;;;;;;;;;;4915816;29;20122;-61
2023/06/20 03:18:36;;;;;;;164.82;150.88;;;;;;;;;;4907052;29;20162;-62
2023/06/20 03:21:03;;;;;;;179.30;161.25;;;;;;;;;;4931048;29;20112;-61
2023/06/20 03:23:50;;;;;;;166.07;151.68;;;;;;;;;;4928073;29;20051;-62
2023/06/20 03:26:16;;;;;;;154.30;141.95;;;;;;;;;;4899890;29;20086;-62
2023/06/20 03:28:43;;;;;;;167.30;151.02;;;;;;;;;;4900583;29;20473;-65
2023/06/20 03:31:10;;;;;;;158.85;146.13;;;;;;;;;;4906661;29;20056;-62
2023/06/20 03:33:37;;;;;;;164.32;149.50;;;;;;;;;;4915535;29;20395;-62
2023/06/20 03:36:04;;;;;;;167.13;152.90;;;;;;;;;;4911602;29;20101;-62
2023/06/20 03:38:31;;;;;;;167.85;153.13;;;;;;;;;;4906392;29;20080;-61
2023/06/20 03:40:59;;;;;;;172.32;155.00;;;;;;;;;;4913038;29;20388;-63
2023/06/20 03:43:27;;;;;;;168.27;154.65;;;;;;;;;;4916291;29;20056;-61
2023/06/20 03:45:53;;;;;;;159.65;147.77;;;;;;;;;;4905501;29;20079;-62
2023/06/20 03:48:21;;;;;;;173.65;159.25;;;;;;;;;;4915115;29;20080;-62
2023/06/20 03:50:48;;;;;;;159.73;146.40;;;;;;;;;;4908334;29;20067;-61
2023/06/20 03:53:16;;;;;;;168.55;154.70;;;;;;;;;;4931009;29;20152;-60
2023/06/20 03:55:43;;;;;;;168.95;153.38;;;;;;;;;;4904942;29;20052;-61
2023/06/20 03:58:10;;;;;;;177.45;162.65;;;;;;;;;;4915793;29;20052;-61
2023/06/20 04:00:38;;;;;;;173.82;158.90;;;;;;;;;;4910242;29;20055;-62
2023/06/20 04:03:05;;;;;;;188.73;167.55;;;;;;;;;;4899782;29;20067;-62
2023/06/20 04:05:32;;;;;;;186.95;169.70;;;;;;;;;;4914150;29;20108;-61
2023/06/20 04:08:00;;;;;;;197.50;177.98;;;;;;;;;;4916396;29;20131;-61
2023/06/20 04:10:27;;;;;;;192.82;178.05;;;;;;;;;;4916512;29;20079;-63
2023/06/20 04:12:54;;;;;;;203.32;187.35;;;;;;;;;;4907189;29;20056;-62
2023/06/20 04:15:21;;;;;;;200.13;183.43;;;;;;;;;;4899814;29;20398;-63
2023/06/20 04:17:48;;;;;;;268.83;229.10;;;;;;;;;;4900522;29;20079;-64
2023/06/20 04:20:14;;;;;;;230.63;210.40;;;;;;;;;;4928707;29;20054;-64
2023/06/20 04:22:45;;;;;;;247.57;226.00;;;;;;;;;;4929981;29;20076;-62
2023/06/20 04:25:12;;;;;;;246.00;220.77;;;;;;;;;;4925787;29;20059;-62
2023/06/20 04:27:39;;;;;;;241.88;220.88;;;;;;;;;;4913018;29;20569;-61
2023/06/20 04:30:06;;;;;;;244.40;222.85;;;;;;;;;;4898455;29;20417;-61
2023/06/20 04:32:34;;;;;;;249.68;224.05;;;;;;;;;;4894805;29;20071;-64
2023/06/20 04:35:01;;;;;;;236.07;211.68;;;;;;;;;;4897276;29;20409;-63
2023/06/20 04:37:31;;;;;;;218.68;200.55;;;;;;;;;;4908952;29;20135;-64
2023/06/20 04:40:00;;;;;;;232.77;212.10;;;;;;;;;;4896560;29;20067;-61
2023/06/20 04:42:30;;;;;;;238.82;215.60;;;;;;;;;;4907215;29;20044;-64
2023/06/20 04:44:56;;;;;;;230.95;210.55;;;;;;;;;;4928083;29;20059;-61
2023/06/20 04:47:23;;;;;;;221.15;200.10;;;;;;;;;;4901730;29;20048;-62
2023/06/20 04:49:50;;;;;;;219.07;199.65;;;;;;;;;;4905982;29;20058;-61
2023/06/20 04:52:19;;;;;;;230.73;208.30;;;;;;;;;;4927543;29;20238;-61
2023/06/20 04:54:45;;;;;;;234.20;211.43;;;;;;;;;;4895779;29;20623;-63
2023/06/20 04:57:12;;;;;;;221.98;202.77;;;;;;;;;;4927869;29;20067;-62
2023/06/20 04:59:39;;;;;;;249.18;223.07;;;;;;;;;;4910895;29;20055;-62
2023/06/20 05:02:06;;;;;;;334.95;253.68;;;;;;;;;;4893803;29;20150;-64
2023/06/20 05:04:33;;;;;;;268.20;241.00;;;;;;;;;;4880054;29;20105;-62
2023/06/20 05:07:00;;;;;;;249.98;227.65;;;;;;;;;;4912452;29;20036;-63
2023/06/20 05:09:28;;;;;;;269.67;241.23;;;;;;;;;;4926293;29;20059;-62
2023/06/20 05:11:54;;;;;;;254.85;228.13;;;;;;;;;;4905260;29;20469;-62
2023/06/20 05:14:26;;;;;;;262.92;238.50;;;;;;;;;;4908448;29;20048;-63
2023/06/20 05:16:53;;;;;;;275.33;228.27;;;;;;;;;;4913793;29;20050;-61
2023/06/20 05:19:19;;;;;;;253.43;233.23;;;;;;;;;;4911970;29;20056;-63
2023/06/20 05:21:46;;;;;;;278.10;250.23;;;;;;;;;;4912268;29;20056;-63
2023/06/20 05:24:13;;;;;;;278.17;254.82;;;;;;;;;;4911381;29;20047;-62
2023/06/20 05:26:40;;;;;;;296.88;270.60;;;;;;;;;;4928042;29;20087;-61
2023/06/20 05:29:07;;;;;;;303.30;273.25;;;;;;;;;;4913634;29;20052;-62
2023/06/20 05:31:38;;;;;;;301.05;276.35;;;;;;;;;;4914275;29;20055;-65
2023/06/20 05:34:05;;;;;;;303.25;279.50;;;;;;;;;;4896185;29;20048;-63
2023/06/20 05:36:32;;;;;;;314.80;286.33;;;;;;;;;;4897554;29;20047;-62
2023/06/20 05:38:58;;;;;;;327.20;298.70;;;;;;;;;;4927979;29;20480;-63
2023/06/20 05:41:25;;;;;;;315.85;285.90;;;;;;;;;;4914245;29;20047;-62
2023/06/20 05:43:52;;;;;;;308.38;282.10;;;;;;;;;;4902515;29;20762;-63
2023/06/20 05:46:19;;;;;;;302.90;275.13;;;;;;;;;;4913694;29;20047;-62
2023/06/20 05:48:48;;;;;;;307.25;273.67;;;;;;;;;;4910487;29;20048;-63
2023/06/20 05:51:14;;;;;;;286.48;261.30;;;;;;;;;;4912607;29;20050;-64
2023/06/20 05:53:41;;;;;;;294.20;268.33;;;;;;;;;;4912661;29;20075;-63
2023/06/20 05:56:09;;;;;;;301.00;270.67;;;;;;;;;;4904627;29;20060;-62
2023/06/20 05:58:38;;;;;;;275.42;251.98;;;;;;;;;;4904526;29;20379;-61
2023/06/20 06:01:05;;;;;;;274.42;251.98;;;;;;;;;;4913119;29;20493;-63
2023/06/20 06:03:35;;;;;;;330.25;260.25;;;;;;;;;;4910673;29;20498;-61
2023/06/20 06:06:03;;;;;;;289.52;260.98;;;;;;;;;;4906430;29;20071;-63
2023/06/20 06:08:30;;;;;;;283.77;259.27;;;;;;;;;;4913342;29;20051;-62
2023/06/20 06:10:57;;;;;;;279.58;255.05;;;;;;;;;;4927949;29;20426;-63
2023/06/20 06:13:25;;;;;;;275.02;249.63;;;;;;;;;;4913888;29;20084;-63
2023/06/20 06:15:51;;;;;;;284.25;261.38;;;;;;;;;;4913582;29;20048;-62
2023/06/20 06:18:25;;;;;;;277.23;255.30;;;;;;;;;;4911714;29;20088;-61
2023/06/20 06:20:52;;;;;;;280.52;256.05;;;;;;;;;;4895890;29;20048;-61
2023/06/20 06:23:19;;;;;;;286.63;261.92;;;;;;;;;;4903910;29;20064;-63
2023/06/20 06:25:45;;;;;;;294.40;268.15;;;;;;;;;;4913900;29;20044;-62
2023/06/20 06:28:12;;;;;;;301.35;275.55;;;;;;;;;;4926620;29;20047;-62
2023/06/20 06:30:39;;;;;;;301.63;275.98;;;;;;;;;;4913662;29;20055;-66
2023/06/20 06:33:07;;;;;;;330.92;300.23;;;;;;;;;;4904605;29;20100;-64
2023/06/20 06:35:34;;;;;;;304.92;278.67;;;;;;;;;;4912660;29;20048;-63
2023/06/20 06:38:01;;;;;;;316.17;288.08;;;;;;;;;;4895994;29;20052;-62
2023/06/20 06:40:28;;;;;;;300.75;274.20;;;;;;;;;;4907934;29;20079;-61
2023/06/20 06:42:55;;;;;;;284.58;262.35;;;;;;;;;;4927307;29;20040;-61
2023/06/20 06:45:22;;;;;;;290.30;266.60;;;;;;;;;;4916364;29;20087;-60
2023/06/20 06:47:50;;;;;;;287.50;263.95;;;;;;;;;;4905722;29;20047;-62
2023/06/20 06:50:16;;;;;;;301.58;275.30;;;;;;;;;;4911733;29;20048;-62
2023/06/20 06:52:43;;;;;;;284.73;260.65;;;;;;;;;;4913964;29;20135;-63
2023/06/20 06:55:10;;;;;;;272.15;249.27;;;;;;;;;;4912395;29;20036;-62
2023/06/20 06:57:36;;;;;;;274.90;250.13;;;;;;;;;;4913169;29;20044;-62
2023/06/20 07:00:09;;;;;;;284.63;260.63;;;;;;;;;;4896842;29;20052;-61
2023/06/20 07:02:36;;;;;;;;;;;;;;;;;;4910115;29;20061;-62
2023/06/20 07:05:05;;;;;;;283.83;256.73;;;;;;;;;;4926302;29;19923;-62
2023/06/20 07:07:31;;;;;;;280.45;257.67;;;;;;;;;;4911417;29;20044;-60
2023/06/20 07:09:58;;;;;;;290.98;264.98;;;;;;;;;;4919591;29;20552;-63
2023/06/20 07:12:25;;;;;;;353.85;274.35;;;;;;;;;;4895627;29;20044;-61
2023/06/20 07:14:56;;;;;;;284.38;261.13;;;;;;;;;;4911367;29;20054;-62
2023/06/20 07:17:26;;;;;;;282.77;259.60;;;;;;;;;;4927573;29;20075;-62
2023/06/20 07:19:53;;;;;;;280.55;256.45;;;;;;;;;;4895593;29;20052;-62
2023/06/20 07:22:20;;;;;;;277.42;256.38;;;;;;;;;;4912289;29;20051;-60
2023/06/20 07:24:46;;;;;;;282.35;259.58;;;;;;;;;;4916392;29;20478;-62
2023/06/20 07:27:17;;;;;;;278.42;255.82;;;;;;;;;;4915740;29;20044;-62
2023/06/20 07:29:44;;;;;;;306.55;274.23;;;;;;;;;;4915481;29;20398;-62
2023/06/20 07:32:11;;;;;;;300.65;273.33;;;;;;;;;;4915817;29;20258;-61
2023/06/20 07:34:37;;;;;;;313.50;285.98;;;;;;;;;;4913582;29;20082;-60
2023/06/20 07:37:04;;;;;;;316.05;290.65;;;;;;;;;;4899930;29;20048;-64
2023/06/20 07:39:31;;;;;;;313.27;285.25;;;;;;;;;;4915310;29;20071;-61
2023/06/20 07:41:57;;;;;;;321.67;292.95;;;;;;;;;;4914514;29;20095;-61
2023/06/20 07:44:24;;;;;;;305.52;279.70;;;;;;;;;;4898523;29;20044;-62
2023/06/20 07:46:51;;;;;;;306.38;281.88;;;;;;;;;;4931561;29;20051;-60
2023/06/20 07:49:17;;;;;;;341.83;305.45;;;;;;;;;;4913938;29;20130;-62
2023/06/20 07:51:45;;;;;;;313.02;284.42;;;;;;;;;;4899811;29;20056;-61
2023/06/20 07:54:14;;;;;;;306.70;280.98;;;;;;;;;;4914773;29;20072;-61
2023/06/20 07:56:40;;;;;;;311.30;285.98;;;;;;;;;;4919445;29;20101;-62
2023/06/20 07:59:07;;;;;;;325.58;295.35;;;;;;;;;;4916358;29;20520;-63
2023/06/20 08:01:34;;;;;;;334.92;306.15;;;;;;;;;;4913804;29;20052;-62
2023/06/20 08:04:01;;;;;;;337.67;310.50;;;;;;;;;;4916112;29;20040;-61
2023/06/20 08:06:27;;;;;;;325.88;300.00;;;;;;;;;;4914169;29;20534;-63
2023/06/20 08:08:54;;;;;;;315.23;289.85;;;;;;;;;;4908230;29;20051;-62
2023/06/20 08:11:21;;;;;;;329.75;301.92;;;;;;;;;;4915195;29;20437;-61
2023/06/20 08:13:48;;;;;;;330.42;304.40;;;;;;;;;;4915049;29;20382;-61
2023/06/20 08:16:15;;;;;;;326.15;295.90;;;;;;;;;;4915932;29;20061;-62
2023/06/20 08:18:42;;;;;;;316.77;292.27;;;;;;;;;;4928982;29;20135;-61
2023/06/20 08:21:08;;;;;;;334.40;305.45;;;;;;;;;;4914518;29;20044;-62
2023/06/20 08:23:35;;;;;;;323.90;298.13;;;;;;;;;;4929806;29;20096;-62
2023/06/20 08:26:02;;;;;;;349.38;313.15;;;;;;;;;;4904291;29;20076;-62
2023/06/20 08:28:28;;;;;;;305.45;280.00;;;;;;;;;;4916383;29;20048;-62
2023/06/20 08:30:55;;;;;;;461.08;301.20;;;;;;;;;;4915235;29;20566;-61
2023/06/20 08:33:21;;;;;;;316.13;288.50;;;;;;;;;;4905006;29;20054;-61
2023/06/20 08:35:50;;;;;;;353.13;323.75;;;;;;;;;;4904093;29;20048;-61
2023/06/20 08:38:17;;;;;;;361.92;333.42;;;;;;;;;;4929856;29;20047;-65
2023/06/20 08:40:44;;;;;;;360.98;332.33;;;;;;;;;;4909583;29;20100;-63
2023/06/20 08:43:15;;;;;;;369.65;335.45;;;;;;;;;;4913952;29;20044;-62
2023/06/20 08:45:42;;;;;;;356.15;326.45;;;;;;;;;;4914789;29;20056;-62
2023/06/20 08:48:09;;;;;;;359.00;328.75;;;;;;;;;;4914770;29;20067;-63
2023/06/20 08:50:39;;;;;;;373.63;323.33;;;;;;;;;;4905696;29;20054;-63
2023/06/20 08:53:07;;;;;;;326.20;297.40;;;;;;;;;;4912690;29;20087;-63
2023/06/20 08:55:34;;;;;;;329.17;300.17;;;;;;;;;;4905831;29;20461;-63
2023/06/20 08:58:01;;;;;;;319.00;292.98;;;;;;;;;;4914655;29;20156;-63
2023/06/20 09:00:30;;;;;;;319.80;295.00;;;;;;;;;;4913212;29;20093;-62
2023/06/20 09:02:57;;;;;;;326.48;298.63;;;;;;;;;;4905861;29;20063;-64
2023/06/20 09:05:30;;;;;;;321.88;296.52;;;;;;;;;;4928953;29;20036;-62
2023/06/20 09:07:56;;;;;;;368.20;335.67;;;;;;;;;;4881067;29;20054;-63
2023/06/20 09:10:24;;;;;;;348.00;321.38;;;;;;;;;;4914525;29;20048;-62
2023/06/20 09:12:58;;;;;;;369.50;339.80;;;;;;;;;;4928570;29;20052;-63
2023/06/20 09:15:26;;;;;;;377.23;346.60;;;;;;;;;;4912772;29;20051;-61
2023/06/20 09:17:53;;;;;;;350.90;322.08;;;;;;;;;;4908485;29;20107;-67
2023/06/20 09:20:23;;;;;;;359.45;329.13;;;;;;;;;;4928596;29;20490;-62
2023/06/20 09:22:51;;;;;;;309.45;283.95;;;;;;;;;;4928495;29;20055;-62
2023/06/20 09:25:21;;;;;;;290.98;269.20;;;;;;;;;;4914444;29;20044;-63
2023/06/20 09:27:48;;;;;;;335.38;291.35;;;;;;;;;;4912730;29;20048;-63
2023/06/20 09:30:15;;;;;;;319.15;291.25;;;;;;;;;;4928426;29;20055;-61
2023/06/20 09:32:42;;;;;;;324.90;297.65;;;;;;;;;;4915650;29;20093;-62
2023/06/20 09:35:09;;;;;;;330.80;299.80;;;;;;;;;;4914319;29;20044;-61
2023/06/20 09:37:39;;;;;;;324.38;296.33;;;;;;;;;;4911250;29;20047;-62
2023/06/20 09:40:08;;;;;;;320.58;292.40;;;;;;;;;;4927868;29;20048;-63
2023/06/20 09:42:34;;;;;;;322.98;297.58;;;;;;;;;;4927724;29;20052;-62
2023/06/20 09:45:01;;;;;;;329.58;302.85;;;;;;;;;;4912231;29;20058;-62
2023/06/20 09:47:28;;;;;;;318.50;292.23;;;;;;;;;;4913830;29;20052;-63
2023/06/20 09:49:58;;;;;;;325.92;299.65;;;;;;;;;;4926146;29;20048;-62
2023/06/20 09:52:31;;;;;;;327.25;300.48;;;;;;;;;;4927301;29;20048;-61
2023/06/20 09:55:00;;;;;;;316.92;292.75;;;;;;;;;;4917587;29;20044;-62
2023/06/20 09:57:33;;;;;;;325.05;298.13;;;;;;;;;;4906423;29;20056;-62
2023/06/20 10:00:00;;;;;;;313.08;288.23;;;;;;;;;;4927618;29;20130;-63
2023/06/20 10:02:27;;;;;;;325.20;298.08;;;;;;;;;;4913534;29;20406;-62
2023/06/20 10:04:54;;;;;;;347.38;309.85;;;;;;;;;;4927830;29;20059;-64
2023/06/20 10:07:21;;;;;;;339.60;306.70;;;;;;;;;;4904224;29;20404;-65
2023/06/20 10:09:48;;;;;;;338.27;304.58;;;;;;;;;;4912501;29;20054;-62
2023/06/20 10:12:15;;;;;;;330.13;301.48;;;;;;;;;;4904478;29;20048;-62
2023/06/20 10:14:42;;;;;;;323.42;296.92;;;;;;;;;;4927813;29;20386;-63
2023/06/20 10:17:11;;;;;;;344.63;312.13;;;;;;;;;;4904137;29;20056;-63
2023/06/20 10:19:45;;;;;;;319.45;293.25;;;;;;;;;;4910905;29;20056;-61
2023/06/20 10:22:12;;;;;;;325.75;298.50;;;;;;;;;;4912600;29;20056;-61
2023/06/20 10:24:39;;;;;;;324.13;297.20;;;;;;;;;;4899250;29;20059;-61
2023/06/20 10:27:07;;;;;;;347.40;310.58;;;;;;;;;;4896121;29;20138;-62
2023/06/20 10:29:40;;;;;;;338.58;309.98;;;;;;;;;;4911804;29;20044;-63
2023/06/20 10:32:08;;;;;;;349.70;317.38;;;;;;;;;;4914042;29;20043;-62
2023/06/20 10:34:41;;;;;;;343.35;316.42;;;;;;;;;;4909965;29;20050;-62
2023/06/20 10:37:20;;;;;;;363.83;332.85;;;;;;;;;;4911875;29;20537;-61
2023/06/20 10:39:50;;;;;;;338.42;310.45;;;;;;;;;;4894332;29;20072;-62
2023/06/20 10:42:32;;;;;;;348.20;317.08;;;;;;;;;;4911982;29;20071;-61
2023/06/20 10:45:18;;;;;;;349.77;320.25;;;;;;;;;;4913576;29;20104;-63
2023/06/20 10:47:45;;;;;;;359.58;329.00;;;;;;;;;;4895944;29;20083;-62
2023/06/20 10:50:13;;;;;;;390.95;350.45;;;;;;;;;;4928783;29;20078;-62
2023/06/20 10:52:40;;;;;;;386.25;349.67;;;;;;;;;;4917028;29;20079;-63
2023/06/20 10:55:13;;;;;;;390.85;353.45;;;;;;;;;;4929350;29;20498;-61
2023/06/20 10:57:46;;;;;;;362.42;333.13;;;;;;;;;;4916479;29;20059;-62
2023/06/20 11:00:15;;;;;;;366.25;330.90;;;;;;;;;;4916045;29;20413;-63
2023/06/20 11:02:42;;;;;;;375.50;341.05;;;;;;;;;;4913273;29;20103;-62
2023/06/20 11:05:09;;;;;;;359.20;327.35;;;;;;;;;;4898965;29;20418;-61
2023/06/20 11:07:49;;;;;;;356.30;326.60;;;;;;;;;;4899704;29;20083;-64
2023/06/20 11:10:28;;;;;;;371.92;340.02;;;;;;;;;;4914840;29;20127;-62
2023/06/20 11:12:55;;;;;;;367.42;337.52;;;;;;;;;;4912443;29;20040;-62
2023/06/20 11:15:23;;;;;;;379.83;345.90;;;;;;;;;;4929655;29;20673;-62
2023/06/20 11:17:50;;;;;;;392.42;355.60;;;;;;;;;;4928538;29;20047;-62
2023/06/20 11:20:17;;;;;;;382.40;349.73;;;;;;;;;;4929025;29;20064;-62
2023/06/20 11:22:45;;;;;;;391.65;358.58;;;;;;;;;;4930474;29;20047;-62
2023/06/20 11:25:12;;;;;;;478.63;361.60;;;;;;;;;;4925393;28;20044;-63
2023/06/20 11:27:40;;;;;;;387.73;351.98;;;;;;;;;;4906539;29;20085;-62
2023/06/20 11:30:07;;;;;;;384.45;349.95;;;;;;;;;;4913348;29;20048;-61
2023/06/20 11:32:33;;;;;;;372.20;341.13;;;;;;;;;;4905855;29;20058;-62
2023/06/20 11:35:02;;;;;;;384.60;347.30;;;;;;;;;;4929814;29;20163;-62
2023/06/20 11:37:30;;;;;;;379.75;346.15;;;;;;;;;;4907728;29;20052;-63
2023/06/20 11:39:57;;;;;;;376.63;344.98;;;;;;;;;;4913954;29;20056;-61
2023/06/20 11:42:24;;;;;;;368.67;338.92;;;;;;;;;;4915211;29;20096;-62
2023/06/20 11:44:51;;;;;;;382.40;345.80;;;;;;;;;;4914615;29;20732;-62
2023/06/20 11:47:18;;;;;;;373.20;340.35;;;;;;;;;;4916159;29;20132;-62
2023/06/20 11:49:44;;;;;;;360.38;331.83;;;;;;;;;;4930459;29;20055;-62
2023/06/20 11:52:11;;;;;;;377.17;341.52;;;;;;;;;;4913407;29;20052;-62
2023/06/20 11:54:58;;;;;;;364.58;332.75;;;;;;;;;;4912789;29;20040;-63
2023/06/20 11:57:30;;;;;;;360.98;329.75;;;;;;;;;;4925542;29;20405;-63
2023/06/20 12:00:14;;;;;;;375.92;340.15;;;;;;;;;;4914471;29;20044;-62
2023/06/20 12:02:41;;;;;;;369.70;335.75;;;;;;;;;;4897978;29;20195;-64
2023/06/20 12:05:08;;;;;;;368.35;334.40;;;;;;;;;;4904894;29;20072;-62
2023/06/20 12:07:52;;;;;;;361.10;331.17;;;;;;;;;;4929615;29;20048;-63
2023/06/20 12:10:21;;;;;;;366.20;335.85;;;;;;;;;;4925113;29;20104;-61
2023/06/20 12:12:47;;;;;;;370.65;340.27;;;;;;;;;;4914623;29;20067;-61
2023/06/20 12:15:14;;;;;;;403.20;361.52;;;;;;;;;;4912551;29;20055;-62
2023/06/20 12:17:41;;;;;;;366.88;337.63;;;;;;;;;;4905965;29;20051;-61
2023/06/20 12:20:08;;;;;;;378.00;343.17;;;;;;;;;;4897122;29;20055;-62
2023/06/20 12:22:54;;;;;;;367.55;340.02;;;;;;;;;;4913369;29;20055;-62
2023/06/20 12:25:20;;;;;;;383.67;351.70;;;;;;;;;;4895018;29;20048;-62
2023/06/20 12:27:47;;;;;;;400.88;365.15;;;;;;;;;;4913808;29;20050;-62
2023/06/20 12:30:14;;;;;;;402.58;367.30;;;;;;;;;;4905294;29;20084;-62
2023/06/20 12:32:40;;;;;;;400.17;360.35;;;;;;;;;;4915586;29;20048;-61
2023/06/20 12:35:07;;;;;;;406.95;370.70;;;;;;;;;;4905246;29;20052;-64
2023/06/20 12:37:34;;;;;;;420.88;381.50;;;;;;;;;;4898034;29;20044;-63
2023/06/20 12:40:01;;;;;;;400.60;367.55;;;;;;;;;;4912397;29;20541;-62
2023/06/20 12:42:28;;;;;;;425.85;387.70;;;;;;;;;;4913569;29;20554;-63
2023/06/20 12:44:55;;;;;;;406.90;371.83;;;;;;;;;;4896793;29;20052;-63
2023/06/20 12:47:22;;;;;;;420.58;383.25;;;;;;;;;;4913430;29;20048;-63
2023/06/20 12:49:49;;;;;;;430.17;391.45;;;;;;;;;;4914793;29;20052;-62
2023/06/20 12:52:15;;;;;;;419.20;382.42;;;;;;;;;;4904174;29;20051;-62
2023/06/20 12:54:42;;;;;;;434.65;396.63;;;;;;;;;;4912042;29;20042;-62
2023/06/20 12:57:09;;;;;;;438.52;401.45;;;;;;;;;;4913766;29;20048;-63
2023/06/20 12:59:35;;;;;;;457.85;416.27;;;;;;;;;;4908205;29;20051;-62
2023/06/20 13:02:02;;;;;;;427.98;390.58;;;;;;;;;;4901631;29;20067;-62
2023/06/20 13:04:29;;;;;;;414.08;380.65;;;;;;;;;;4929058;29;20048;-62
2023/06/20 13:06:56;;;;;;;437.65;395.55;;;;;;;;;;4914849;29;20451;-65
2023/06/20 13:09:23;;;;;;;443.55;396.23;;;;;;;;;;4912201;29;20052;-64
2023/06/20 13:11:49;;;;;;;416.80;380.75;;;;;;;;;;4897738;29;20044;-61
2023/06/20 13:14:17;;;;;;;424.55;383.67;;;;;;;;;;4905220;29;20409;-62
2023/06/20 13:16:44;;;;;;;410.38;375.60;;;;;;;;;;4913909;29;20044;-64
2023/06/20 13:19:11;;;;;;;424.60;381.23;;;;;;;;;;4906474;29;20494;-62
2023/06/20 13:21:38;;;;;;;412.65;374.60;;;;;;;;;;4905409;29;20543;-63
2023/06/20 13:24:06;;;;;;;402.05;367.92;;;;;;;;;;4896322;29;20482;-62
2023/06/20 13:26:36;;;;;;;407.08;370.27;;;;;;;;;;4901592;29;20044;-61
2023/06/20 13:29:03;;;;;;;412.58;376.50;;;;;;;;;;4913370;29;20044;-62
2023/06/20 13:31:29;;;;;;;383.38;352.98;;;;;;;;;;4911198;29;20045;-62
2023/06/20 13:33:56;;;;;;;397.45;364.23;;;;;;;;;;4915744;29;20083;-63
2023/06/20 13:36:23;;;;;;;407.67;372.08;;;;;;;;;;4927049;29;20478;-61
2023/06/20 13:38:50;;;;;;;394.67;361.75;;;;;;;;;;4896408;29;20079;-61
2023/06/20 13:41:17;;;;;;;496.42;373.60;;;;;;;;;;4894163;29;20067;-61
2023/06/20 13:43:43;;;;;;;403.60;367.55;;;;;;;;;;4903825;29;20055;-61
2023/06/20 13:46:10;;;;;;;409.08;372.40;;;;;;;;;;4912752;29;20048;-63
2023/06/20 13:48:37;;;;;;;388.88;356.40;;;;;;;;;;4880529;29;20043;-62
2023/06/20 13:51:04;;;;;;;402.92;367.50;;;;;;;;;;4905920;29;20052;-62
2023/06/20 13:53:30;;;;;;;394.48;360.70;;;;;;;;;;4903824;29;20535;-62
2023/06/20 13:55:57;;;;;;;398.05;366.27;;;;;;;;;;4912136;29;20047;-63
2023/06/20 13:58:24;;;;;;;393.27;360.38;;;;;;;;;;4913060;29;20048;-62
2023/06/20 14:00:50;;;;;;;413.75;375.42;;;;;;;;;;4907440;29;20056;-61
2023/06/20 14:03:17;;;;;;;403.33;369.42;;;;;;;;;;4912691;29;20052;-63